Time;durP1;ratioP1;P1;durP2;ratioP2;P2;SDS_P1;SDS_P2;PMS_P1;PMS_P2;Temp;Humidity;BMP_temperature;BMP_pressure;BME280_temperature;BME280_humidity;BME280_pressure;Samples;Min_cycle;Max_cycle;Signal;HPM_P1;HPM_P2
2022/05/07 00:00:06;;;;;;;;;;;;;;;20.22;47.21;95649.81;2077147;28;980;-56
2022/05/07 00:01:08;;;;;;;;;;;;;;;20.21;47.12;95647.34;2086509;28;1641;-58
2022/05/07 00:02:09;;;;;;;;;;;;;;;20.22;47.07;95647.16;2086288;28;1918;-57
2022/05/07 00:03:11;;;;;;;;;;;;;;;20.21;47.14;95650.84;2083295;28;1048;-56
2022/05/07 00:04:13;;;;;;;;;;;;;;;20.20;47.33;95649.19;2082907;28;1840;-56
2022/05/07 00:05:15;;;;;;;;;;;;;;;20.20;47.02;95643.84;2086151;28;1473;-56
2022/05/07 00:06:16;;;;;;;;;;;;;;;20.20;47.04;95643.84;2091031;28;1020;-61
2022/05/07 00:07:19;;;;;;;;;;;;;;;20.20;47.15;95648.34;2090385;28;1528;-56
2022/05/07 00:08:20;;;;;;;;;;;;;;;20.19;47.43;95639.53;2083236;28;1962;-56
2022/05/07 00:09:24;;;;;;;;;;;;;;;20.19;47.03;95646.72;2083017;28;1096;-58
2022/05/07 00:10:25;;;;;;;;;;;;;;;20.20;47.41;95640.34;2079247;28;1452;-57
2022/05/07 00:11:27;;;;;;;;;;;;;;;20.19;47.25;95641.38;2077688;28;1213;-63
2022/05/07 00:12:28;;;;;;;;;;;;;;;20.19;47.14;95642.19;2082839;28;1247;-57
2022/05/07 00:13:30;;;;;;;;;;;;;;;20.19;47.08;95641.38;2083415;28;1133;-58
2022/05/07 00:14:31;;;;;;;;;;;;;;;20.20;47.43;95637.69;2083120;28;1557;-57
2022/05/07 00:15:33;;;;;;;;;;;;;;;20.20;47.29;95645.69;2083334;28;1060;-56
2022/05/07 00:18:06;;;;;;;;;;;;;;;20.20;47.35;95643.84;2075033;28;962;-59
2022/05/07 00:19:08;;;;;;;;;;;;;;;20.19;47.19;95636.88;2075000;28;1100;-56
2022/05/07 00:20:10;;;;;;;;;;;;;;;20.18;47.38;95632.56;2079602;28;1513;-57
2022/05/07 00:21:11;;;;;;;;;;;;;;;20.21;47.48;95640.16;2083091;28;1022;-58
2022/05/07 00:22:13;;;;;;;;;;;;;;;20.20;47.30;95630.50;2079017;28;1298;-57
2022/05/07 00:23:15;;;;;;;;;;;;;;;20.20;47.43;95638.50;2078402;28;1108;-57
2022/05/07 00:24:17;;;;;;;;;;;;;;;20.18;47.38;95635.22;2082783;28;1168;-57
2022/05/07 00:25:19;;;;;;;;;;;;;;;20.19;47.61;95641.38;2089506;28;1477;-56
2022/05/07 00:26:20;;;;;;;;;;;;;;;20.18;47.48;95635.22;2091391;28;1183;-59
2022/05/07 00:27:22;;;;;;;;;;;;;;;20.19;47.44;95638.72;2098015;28;1521;-57
2022/05/07 00:28:23;;;;;;;;;;;;;;;20.19;47.63;95642.19;2097426;28;1914;-57
2022/05/07 00:29:25;;;;;;;;;;;;;;;20.19;47.21;95636.03;2083136;28;1111;-57
2022/05/07 00:30:26;;;;;;;;;;;;;;;20.17;47.08;95636.22;2082744;28;1637;-56
2022/05/07 00:31:28;;;;;;;;;;;;;;;20.18;47.59;95635.22;2081917;28;1455;-58
2022/05/07 00:32:30;;;;;;;;;;;;;;;20.19;48.04;95636.03;2083052;28;1084;-56
2022/05/07 00:33:31;;;;;;;;;;;;;;;20.19;47.61;95631.53;2078375;28;1649;-58
2022/05/07 00:34:33;;;;;;;;;;;;;;;20.18;47.52;95632.56;2077965;28;1495;-56
2022/05/07 00:35:34;;;;;;;;;;;;;;;20.18;47.76;95635.22;2090041;28;1486;-56
2022/05/07 00:36:36;;;;;;;;;;;;;;;20.20;47.80;95632.34;2087080;28;1652;-56
2022/05/07 00:37:38;;;;;;;;;;;;;;;20.19;48.07;95631.53;2090039;28;2031;-57
2022/05/07 00:38:39;;;;;;;;;;;;;;;20.20;47.93;95635.84;2090390;28;1159;-58
2022/05/07 00:39:41;;;;;;;;;;;;;;;20.20;47.92;95632.34;2087728;28;1642;-57
2022/05/07 00:40:42;;;;;;;;;;;;;;;20.19;47.89;95633.38;2082930;28;1676;-58
2022/05/07 00:41:44;;;;;;;;;;;;;;;20.19;47.72;95636.03;2082520;28;1518;-60
2022/05/07 00:42:45;;;;;;;;;;;;;;;20.19;48.04;95634.19;2090118;28;1513;-57
2022/05/07 00:43:47;;;;;;;;;;;;;;;20.18;47.81;95627.22;2091303;28;1085;-58
2022/05/07 00:44:48;;;;;;;;;;;;;;;20.18;48.33;95629.06;2086724;28;1029;-56
2022/05/07 00:45:53;;;;;;;;;;;;;;;20.18;48.18;95629.88;2081552;28;1715;-60
2022/05/07 00:46:56;;;;;;;;;;;;;;;20.19;48.24;95628.84;2074326;28;1994;-56
2022/05/07 00:47:58;;;;;;;;;;;;;;;20.20;48.25;95619.81;2076191;28;1703;-59
2022/05/07 00:48:59;;;;;;;;;;;;;;;20.22;48.26;95630.31;2074525;28;2005;-56
2022/05/07 00:51:34;;;;;;;;;;;;;;;20.21;48.49;95623.34;2081373;28;1624;-60
2022/05/07 00:52:36;;;;;;;;;;;;;;;20.21;48.17;95632.16;2090840;28;953;-56
2022/05/07 00:53:38;;;;;;;;;;;;;;;20.22;48.43;95614.31;2090730;28;1116;-56
2022/05/07 00:54:43;;;;;;;;;;;;;;;20.23;48.05;95627.47;2091018;28;1020;-56
2022/05/07 00:55:46;;;;;;;;;;;;;;;20.22;48.40;95622.31;2090973;28;934;-60
2022/05/07 00:56:47;;;;;;;;;;;;;;;20.21;47.78;95629.50;2082923;28;1091;-56
2022/05/07 00:57:49;;;;;;;;;;;;;;;20.20;48.25;95627.00;2090862;28;1247;-56
2022/05/07 00:58:54;;;;;;;;;;;;;;;20.21;48.23;95629.50;2090354;28;2105;-56
2022/05/07 00:59:56;;;;;;;;;;;;;;;20.21;48.39;95629.50;2089286;28;1567;-56
2022/05/07 01:00:59;;;;;;;;;;;;;;;20.20;48.32;95627.00;2081948;28;1743;-58
2022/05/07 01:02:00;;;;;;;;;;;;;;;20.21;48.17;95632.16;2089605;28;1654;-60
2022/05/07 01:03:03;;;;;;;;;;;;;;;20.21;48.39;95628.69;2090184;28;1193;-57
2022/05/07 01:04:05;;;;;;;;;;;;;;;20.23;48.45;95632.81;2081828;28;1621;-56
2022/05/07 01:05:06;;;;;;;;;;;;;;;20.23;48.41;95627.47;2086478;28;1650;-56
2022/05/07 01:06:09;;;;;;;;;;;;;;;20.22;48.37;95625.81;2089726;28;1496;-56
2022/05/07 01:07:11;;;;;;;;;;;;;;;20.21;48.18;95629.50;2089107;28;1082;-56
2022/05/07 01:08:12;;;;;;;;;;;;;;;20.21;48.41;95624.16;2084433;28;1021;-57
2022/05/07 01:09:14;;;;;;;;;;;;;;;20.20;48.50;95630.50;2090226;28;1988;-56
2022/05/07 01:10:16;;;;;;;;;;;;;;;20.21;48.30;95628.69;2085154;28;1674;-56
2022/05/07 01:11:20;;;;;;;;;;;;;;;20.20;48.60;95630.50;2074317;28;1114;-55
2022/05/07 01:12:21;;;;;;;;;;;;;;;20.22;48.48;95627.66;2080773;28;1609;-56
2022/05/07 01:13:23;;;;;;;;;;;;;;;20.21;48.56;95629.50;2082191;28;1628;-58
2022/05/07 01:14:25;;;;;;;;;;;;;;;20.21;48.67;95626.84;2081795;28;1539;-56
2022/05/07 01:15:26;;;;;;;;;;;;;;;20.22;48.62;95622.31;2081070;28;1508;-56
2022/05/07 01:16:28;;;;;;;;;;;;;;;20.20;48.31;95625.16;2082301;28;1034;-56
2022/05/07 01:17:33;;;;;;;;;;;;;;;20.22;48.40;95632.97;2082481;28;1727;-56
2022/05/07 01:18:34;;;;;;;;;;;;;;;20.14;48.32;95622.44;2078064;28;1351;-56
2022/05/07 01:19:36;;;;;;;;;;;;;;;20.19;48.89;95628.84;2077612;28;1215;-56
2022/05/07 01:20:38;;;;;;;;;;;;;;;20.18;48.36;95629.88;2081833;28;1779;-57
2022/05/07 01:21:40;;;;;;;;;;;;;;;20.19;48.54;95631.53;2089301;28;1854;-58
2022/05/07 01:22:42;;;;;;;;;;;;;;;20.19;48.33;95636.88;2090621;28;1151;-56
2022/05/07 01:23:45;;;;;;;;;;;;;;;20.19;48.26;95631.53;2089923;28;1548;-59
2022/05/07 01:24:46;;;;;;;;;;;;;;;20.19;48.70;95630.72;2098308;28;1147;-56
2022/05/07 01:25:48;;;;;;;;;;;;;;;20.18;48.77;95635.22;2098011;28;1135;-56
2022/05/07 01:26:49;;;;;;;;;;;;;;;20.19;48.67;95631.53;2082484;28;1365;-55
2022/05/07 01:27:51;;;;;;;;;;;;;;;20.19;48.37;95636.88;2090066;28;1108;-57
2022/05/07 01:28:59;;;;;;;;;;;;;;;20.19;48.48;95636.88;2081729;28;2040;-57
2022/05/07 01:30:01;;;;;;;;;;;;;;;20.19;48.68;95634.19;2070197;28;1716;-55
2022/05/07 01:31:04;;;;;;;;;;;;;;;20.19;48.60;95639.53;2076776;28;1245;-55
2022/05/07 01:32:06;;;;;;;;;;;;;;;20.18;48.45;95643.22;2082184;28;1234;-56
2022/05/07 01:33:08;;;;;;;;;;;;;;;20.19;48.83;95636.88;2082522;28;1104;-56
2022/05/07 01:34:10;;;;;;;;;;;;;;;20.19;48.66;95644.06;2086759;28;1466;-56
2022/05/07 01:35:11;;;;;;;;;;;;;;;20.20;48.63;95641.16;2086357;28;1634;-56
2022/05/07 01:36:16;;;;;;;;;;;;;;;20.19;48.37;95636.88;2081398;28;1484;-55
2022/05/07 01:37:18;;;;;;;;;;;;;;;20.20;48.79;95638.50;2082808;28;1982;-56
2022/05/07 01:38:20;;;;;;;;;;;;;;;20.19;48.94;95641.38;2082034;28;996;-55
2022/05/07 01:39:21;;;;;;;;;;;;;;;20.19;48.71;95639.53;2081784;28;1577;-55
2022/05/07 01:40:23;;;;;;;;;;;;;;;20.21;48.70;95640.16;2082375;28;1675;-56
2022/05/07 01:41:24;;;;;;;;;;;;;;;20.20;48.58;95638.50;2077702;28;1345;-55
2022/05/07 01:42:26;;;;;;;;;;;;;;;20.20;48.83;95638.50;2077905;28;1437;-55
2022/05/07 01:43:28;;;;;;;;;;;;;;;20.19;48.66;95636.88;2082517;28;1632;-58
2022/05/07 01:44:30;;;;;;;;;;;;;;;20.19;48.65;95642.19;2081295;28;1666;-59
2022/05/07 01:45:31;;;;;;;;;;;;;;;20.18;48.60;95632.56;2082151;28;1637;-55
2022/05/07 01:48:11;;;;;;;;;;;;;;;20.19;48.73;95631.53;2076917;28;1750;-55
2022/05/07 01:49:13;;;;;;;;;;;;;;;20.20;48.86;95633.16;2083776;28;1914;-55
2022/05/07 01:50:14;;;;;;;;;;;;;;;20.21;48.77;95634.00;2088001;28;1644;-57
2022/05/07 01:51:16;;;;;;;;;;;;;;;20.20;48.65;95630.50;2081477;28;1559;-56
2022/05/07 01:52:17;;;;;;;;;;;;;;;20.19;48.72;95626.19;2081910;28;1574;-56
2022/05/07 01:53:19;;;;;;;;;;;;;;;20.19;48.92;95631.53;2072369;28;1201;-57
2022/05/07 01:54:20;;;;;;;;;;;;;;;20.20;48.58;95622.50;2081242;28;1291;-57
2022/05/07 01:55:22;;;;;;;;;;;;;;;20.19;48.38;95620.84;2082884;28;1012;-56
2022/05/07 01:56:23;;;;;;;;;;;;;;;20.19;48.77;95610.19;2082230;28;1052;-56
2022/05/07 01:57:25;;;;;;;;;;;;;;;20.20;48.41;95625.16;2082254;28;912;-55
2022/05/07 01:58:27;;;;;;;;;;;;;;;20.20;48.71;95622.50;2082373;28;1121;-55
2022/05/07 01:59:29;;;;;;;;;;;;;;;20.20;48.79;95627.00;2087203;28;1681;-55
2022/05/07 02:00:31;;;;;;;;;;;;;;;20.19;48.60;95609.38;2083235;28;1662;-57
2022/05/07 02:01:33;;;;;;;;;;;;;;;20.19;48.63;95626.19;2081008;28;1745;-55
2022/05/07 02:02:34;;;;;;;;;;;;;;;20.19;48.54;95618.19;2080817;28;1810;-55
2022/05/07 02:03:37;;;;;;;;;;;;;;;20.19;48.69;95620.84;2082146;28;1547;-56
2022/05/07 02:04:39;;;;;;;;;;;;;;;20.18;48.56;95619.22;2077696;28;1559;-54
2022/05/07 02:05:41;;;;;;;;;;;;;;;20.19;49.16;95620.84;2082049;28;1169;-59
2022/05/07 02:06:42;;;;;;;;;;;;;;;20.20;48.22;95622.50;2082239;28;1084;-57
2022/05/07 02:07:44;;;;;;;;;;;;;;;20.19;48.48;95622.69;2081864;28;1105;-56
2022/05/07 02:08:46;;;;;;;;;;;;;;;20.20;48.62;95625.16;2090244;28;1276;-57
2022/05/07 02:09:47;;;;;;;;;;;;;;;20.18;48.75;95629.88;2089539;28;1991;-56
2022/05/07 02:10:49;;;;;;;;;;;;;;;20.29;48.38;95626.69;2081941;28;1667;-59
2022/05/07 02:11:50;;;;;;;;;;;;;;;20.30;48.45;95633.66;2081812;28;1228;-59
2022/05/07 02:12:52;;;;;;;;;;;;;;;20.32;48.21;95626.28;2081403;28;1116;-58
2022/05/07 02:13:54;;;;;;;;;;;;;;;20.32;48.16;95623.63;2081556;28;2039;-59
2022/05/07 02:14:55;;;;;;;;;;;;;;;20.33;48.12;95625.25;2076350;28;1040;-59
2022/05/07 02:15:57;;;;;;;;;;;;;;;20.35;47.99;95625.09;2065072;28;1498;-62
2022/05/07 02:16:58;;;;;;;;;;;;;;;20.35;48.32;95622.41;2076848;28;1605;-58
2022/05/07 02:18:04;;;;;;;;;;;;;;;20.36;47.88;95621.38;2075432;28;1616;-58
2022/05/07 02:19:06;;;;;;;;;;;;;;;20.36;48.19;95617.91;2074145;28;1092;-58
2022/05/07 02:20:08;;;;;;;;;;;;;;;20.34;48.23;95624.25;2073621;28;1656;-60
2022/05/07 02:21:09;;;;;;;;;;;;;;;20.37;48.19;95627.56;2078597;28;1952;-61
2022/05/07 02:22:11;;;;;;;;;;;;;;;20.35;48.07;95619.75;2081920;28;1104;-59
2022/05/07 02:23:13;;;;;;;;;;;;;;;20.37;48.15;95617.72;2081725;28;1088;-59
2022/05/07 02:24:14;;;;;;;;;;;;;;;20.38;48.24;95626.56;2082337;28;1124;-58
2022/05/07 02:25:16;;;;;;;;;;;;;;;20.38;48.08;95624.72;2082160;28;1048;-58
2022/05/07 02:26:17;;;;;;;;;;;;;;;20.39;48.17;95623.69;2082129;28;1017;-59
2022/05/07 02:27:19;;;;;;;;;;;;;;;20.34;48.34;95618.94;2078496;28;1438;-59
2022/05/07 02:28:20;;;;;;;;;;;;;;;20.30;48.37;95619.50;2090001;28;1258;-57
2022/05/07 02:29:22;;;;;;;;;;;;;;;20.27;48.58;95622.56;2090721;28;1910;-57
2022/05/07 02:30:23;;;;;;;;;;;;;;;20.26;48.46;95620.88;2087141;28;1761;-57
2022/05/07 02:31:25;;;;;;;;;;;;;;;20.25;48.32;95627.25;2081929;28;1167;-57
2022/05/07 02:32:27;;;;;;;;;;;;;;;20.23;48.41;95630.13;2082290;28;1968;-57
2022/05/07 02:33:28;;;;;;;;;;;;;;;20.22;48.52;95631.13;2082113;28;1530;-58
2022/05/07 02:34:33;;;;;;;;;;;;;;;20.21;48.63;95626.84;2091005;28;1164;-57
2022/05/07 02:35:34;;;;;;;;;;;;;;;20.21;48.37;95624.16;2086212;28;1561;-57
2022/05/07 02:36:36;;;;;;;;;;;;;;;20.21;48.51;95629.50;2081746;28;1124;-57
2022/05/07 02:37:37;;;;;;;;;;;;;;;20.21;48.63;95621.50;2082397;28;1347;-57
2022/05/07 02:38:40;;;;;;;;;;;;;;;20.20;48.58;95625.16;2073038;28;990;-59
2022/05/07 02:39:41;;;;;;;;;;;;;;;20.21;48.45;95624.16;2081852;28;1527;-57
2022/05/07 02:43:29;;;;;;;;;;;;;;;20.19;48.56;95630.72;2076462;28;1699;-58
2022/05/07 02:44:30;;;;;;;;;;;;;;;20.18;48.62;95629.88;2082143;28;1303;-59
2022/05/07 02:45:32;;;;;;;;;;;;;;;20.18;48.49;95635.22;2081833;28;1089;-58
2022/05/07 02:46:35;;;;;;;;;;;;;;;20.19;48.52;95636.03;2081763;28;1696;-58
2022/05/07 02:47:38;;;;;;;;;;;;;;;20.19;48.72;95636.88;2082650;28;1099;-56
2022/05/07 02:48:39;;;;;;;;;;;;;;;20.20;48.64;95632.34;2088959;28;1731;-58
2022/05/07 02:49:41;;;;;;;;;;;;;;;20.20;48.57;95643.84;2085926;28;1985;-58
2022/05/07 02:50:43;;;;;;;;;;;;;;;20.19;48.84;95636.88;2077205;28;1724;-57
2022/05/07 02:51:44;;;;;;;;;;;;;;;20.19;48.78;95636.88;2081753;28;1119;-58
2022/05/07 02:52:46;;;;;;;;;;;;;;;20.20;48.44;95638.50;2081296;28;1776;-57
2022/05/07 02:53:47;;;;;;;;;;;;;;;20.19;48.21;95631.53;2081834;28;1494;-57
2022/05/07 02:54:49;;;;;;;;;;;;;;;20.19;48.50;95636.03;2082146;28;1060;-61
2022/05/07 02:55:50;;;;;;;;;;;;;;;20.18;48.34;95637.91;2081097;28;1747;-61
2022/05/07 02:56:52;;;;;;;;;;;;;;;20.18;48.80;95635.22;2073832;28;1083;-56
2022/05/07 02:57:53;;;;;;;;;;;;;;;20.18;48.20;95640.56;2079553;28;1511;-57
2022/05/07 02:58:55;;;;;;;;;;;;;;;20.23;48.52;95642.63;2081800;28;1131;-59
2022/05/07 02:59:56;;;;;;;;;;;;;;;20.24;48.51;95642.44;2080939;28;1529;-58
2022/05/07 03:00:58;;;;;;;;;;;;;;;20.25;48.62;95635.25;2077030;28;1714;-55
2022/05/07 03:02:00;;;;;;;;;;;;;;;20.22;48.83;95636.47;2076624;28;1453;-55
2022/05/07 03:03:02;;;;;;;;;;;;;;;20.21;48.85;95637.50;2084972;28;1479;-55
2022/05/07 03:04:04;;;;;;;;;;;;;;;20.20;48.97;95643.03;2089878;28;1089;-56
2022/05/07 03:05:05;;;;;;;;;;;;;;;20.20;48.93;95632.34;2085180;28;1185;-56
2022/05/07 03:06:07;;;;;;;;;;;;;;;20.20;48.94;95638.50;2081855;28;1706;-56
2022/05/07 03:07:09;;;;;;;;;;;;;;;20.20;48.83;95643.03;2081274;28;1529;-56
2022/05/07 03:08:11;;;;;;;;;;;;;;;20.21;48.82;95637.50;2086288;28;1523;-56
2022/05/07 03:09:12;;;;;;;;;;;;;;;20.19;48.49;95636.88;2090140;28;1048;-56
2022/05/07 03:10:14;;;;;;;;;;;;;;;20.20;48.76;95635.84;2089807;28;1977;-55
2022/05/07 03:11:15;;;;;;;;;;;;;;;20.20;48.89;95638.50;2083548;28;1515;-56
2022/05/07 03:12:17;;;;;;;;;;;;;;;20.19;48.58;95633.38;2076902;28;1151;-56
2022/05/07 03:13:18;;;;;;;;;;;;;;;20.17;48.82;95638.88;2077319;28;1287;-56
2022/05/07 03:14:20;;;;;;;;;;;;;;;20.18;48.78;95643.22;2081392;28;1048;-56
2022/05/07 03:15:23;;;;;;;;;;;;;;;20.17;48.74;95638.88;2081876;28;1084;-57
2022/05/07 03:16:24;;;;;;;;;;;;;;;20.18;48.62;95639.75;2080916;28;1810;-55
2022/05/07 03:17:26;;;;;;;;;;;;;;;20.19;48.51;95638.72;2080864;28;1723;-55
2022/05/07 03:18:28;;;;;;;;;;;;;;;20.18;49.06;95639.75;2088848;28;1452;-55
2022/05/07 03:19:30;;;;;;;;;;;;;;;20.16;48.65;95642.59;2089655;28;1191;-60
2022/05/07 03:20:31;;;;;;;;;;;;;;;20.18;48.64;95645.06;2088693;28;1957;-56
2022/05/07 03:21:33;;;;;;;;;;;;;;;20.17;48.83;95644.22;2089094;28;1747;-58
2022/05/07 03:22:35;;;;;;;;;;;;;;;20.18;48.76;95637.06;2089715;28;1172;-56
2022/05/07 03:23:37;;;;;;;;;;;;;;;20.17;48.65;95638.06;2085560;28;1040;-56
2022/05/07 03:24:40;;;;;;;;;;;;;;;20.17;48.83;95638.88;2078169;28;1682;-56
2022/05/07 03:25:42;;;;;;;;;;;;;;;20.16;48.63;95642.59;2081305;28;1080;-55
2022/05/07 03:26:44;;;;;;;;;;;;;;;20.17;48.74;95641.56;2089843;28;1092;-57
2022/05/07 03:27:45;;;;;;;;;;;;;;;20.17;48.99;95641.56;2089413;28;1005;-56
2022/05/07 03:28:47;;;;;;;;;;;;;;;20.16;48.84;95639.91;2089584;28;1085;-56
2022/05/07 03:29:48;;;;;;;;;;;;;;;20.18;48.84;95637.06;2094202;28;1898;-58
2022/05/07 03:30:50;;;;;;;;;;;;;;;20.18;49.05;95640.56;2088940;28;1623;-56
2022/05/07 03:31:51;;;;;;;;;;;;;;;20.19;48.77;95636.03;2075086;28;3023;-55
2022/05/07 03:32:53;;;;;;;;;;;;;;;20.18;48.85;95629.88;2082895;28;1511;-56
2022/05/07 03:33:55;;;;;;;;;;;;;;;20.19;48.85;95630.72;2087586;28;1464;-59
2022/05/07 03:34:59;;;;;;;;;;;;;;;20.18;48.85;95629.88;2076638;28;1705;-55
2022/05/07 03:36:00;;;;;;;;;;;;;;;20.20;49.04;95633.16;2076724;28;1186;-56
2022/05/07 03:37:02;;;;;;;;;;;;;;;20.19;48.89;95639.53;2081458;28;1167;-55
2022/05/07 03:38:03;;;;;;;;;;;;;;;20.19;48.78;95634.19;2081711;28;1176;-57
2022/05/07 03:39:05;;;;;;;;;;;;;;;20.20;49.00;95629.69;2082046;28;1021;-56
2022/05/07 03:40:07;;;;;;;;;;;;;;;20.19;48.85;95628.84;2083344;28;1537;-57
2022/05/07 03:41:08;;;;;;;;;;;;;;;20.17;49.22;95638.88;2081892;28;1096;-56
2022/05/07 03:42:10;;;;;;;;;;;;;;;20.16;49.26;95639.91;2089291;28;1766;-61
2022/05/07 03:43:12;;;;;;;;;;;;;;;20.18;48.82;95637.06;2089320;28;1016;-56
2022/05/07 03:44:13;;;;;;;;;;;;;;;20.18;48.83;95634.41;2081092;28;1537;-57
2022/05/07 03:45:15;;;;;;;;;;;;;;;20.25;48.76;95638.75;2081747;28;989;-59
2022/05/07 03:46:16;;;;;;;;;;;;;;;20.34;48.19;95632.28;2077066;28;1019;-60
2022/05/07 03:47:18;;;;;;;;;;;;;;;20.38;48.16;95639.91;2075924;28;1620;-57
2022/05/07 03:48:19;;;;;;;;;;;;;;;20.39;48.12;95641.56;2082296;28;1598;-57
2022/05/07 03:49:21;;;;;;;;;;;;;;;20.39;48.20;95638.88;2089107;28;2377;-57
2022/05/07 03:50:23;;;;;;;;;;;;;;;20.40;48.02;95638.66;2086741;28;1992;-57
2022/05/07 03:51:24;;;;;;;;;;;;;;;20.41;47.93;95644.88;2089010;28;1043;-58
2022/05/07 03:53:46;;;;;;;;;;;;;;;20.42;47.95;95641.16;2081385;28;1808;-57
2022/05/07 03:54:48;;;;;;;;;;;;;;;20.41;48.11;95648.34;2075146;28;1706;-58
2022/05/07 03:55:50;;;;;;;;;;;;;;;20.43;48.15;95648.13;2073154;28;1053;-61
2022/05/07 03:56:52;;;;;;;;;;;;;;;20.42;48.04;95641.97;2072904;28;1076;-58
2022/05/07 03:57:54;;;;;;;;;;;;;;;20.39;48.23;95646.91;2068679;28;1120;-57
2022/05/07 03:58:56;;;;;;;;;;;;;;;20.38;48.62;95647.94;2068331;28;1320;-57
2022/05/07 03:59:58;;;;;;;;;;;;;;;20.41;48.45;95650.19;2073599;28;1120;-55
2022/05/07 04:01:00;;;;;;;;;;;;;;;20.35;48.17;95649.09;2074569;28;1722;-56
2022/05/07 04:02:02;;;;;;;;;;;;;;;20.37;48.02;95648.94;2080098;28;1671;-58
2022/05/07 04:03:04;;;;;;;;;;;;;;;19.10;36.22;95652.19;2084186;28;1480;-58
2022/05/07 04:04:06;;;;;;;;;;;;;;;17.88;38.14;95653.28;2084332;28;1504;-55
2022/05/07 04:05:08;;;;;;;;;;;;;;;16.97;38.99;95652.19;2084505;28;1151;-56
2022/05/07 04:06:09;;;;;;;;;;;;;;;16.48;39.47;95654.16;2080885;28;1630;-55
2022/05/07 04:07:12;;;;;;;;;;;;;;;16.26;39.04;95659.19;2089900;28;1187;-55
2022/05/07 04:08:14;;;;;;;;;;;;;;;16.11;39.62;95652.91;2090097;28;2053;-56
2022/05/07 04:09:16;;;;;;;;;;;;;;;16.12;39.49;95657.22;2083789;28;1540;-56
2022/05/07 04:10:17;;;;;;;;;;;;;;;16.02;39.14;95661.88;2082478;28;1902;-58
2022/05/07 04:11:19;;;;;;;;;;;;;;;15.95;39.02;95663.53;2081613;28;1648;-56
2022/05/07 04:12:21;;;;;;;;;;;;;;;15.79;39.31;95654.59;2081483;28;1813;-55
2022/05/07 04:13:22;;;;;;;;;;;;;;;15.81;39.34;95663.19;2081275;28;1171;-55
2022/05/07 04:14:24;;;;;;;;;;;;;;;15.86;39.25;95660.06;2078761;28;1639;-49
2022/05/07 04:15:25;;;;;;;;;;;;;;;15.72;39.25;95656.22;2080332;28;1639;-56
2022/05/07 04:16:27;;;;;;;;;;;;;;;15.75;39.07;95658.53;2080960;28;1284;-56
2022/05/07 04:17:31;;;;;;;;;;;;;;;15.62;38.81;95658.19;2081764;28;1874;-56
2022/05/07 04:18:32;;;;;;;;;;;;;;;15.43;39.04;95654.03;2081786;28;1080;-55
2022/05/07 04:19:34;;;;;;;;;;;;;;;15.27;39.38;95651.34;2081904;28;1396;-55
2022/05/07 04:20:36;;;;;;;;;;;;;;;15.37;39.72;95660.81;2076937;28;1458;-56
2022/05/07 04:21:40;;;;;;;;;;;;;;;15.43;39.45;95662.00;2074978;28;1504;-60
2022/05/07 04:22:42;;;;;;;;;;;;;;;15.36;39.29;95653.88;2083992;28;1710;-56
2022/05/07 04:23:43;;;;;;;;;;;;;;;15.21;39.63;95652.84;2080740;28;1667;-58
2022/05/07 04:24:45;;;;;;;;;;;;;;;15.28;39.49;95650.34;2081903;28;1663;-56
2022/05/07 04:25:47;;;;;;;;;;;;;;;15.21;39.76;95652.84;2097652;28;1274;-55
2022/05/07 04:26:49;;;;;;;;;;;;;;;15.28;39.96;95655.66;2095567;28;1556;-56
2022/05/07 04:27:51;;;;;;;;;;;;;;;15.22;39.78;95651.84;2089989;28;1085;-59
2022/05/07 04:28:52;;;;;;;;;;;;;;;15.21;39.38;95655.47;2085574;28;1559;-56
2022/05/07 04:29:53;;;;;;;;;;;;;;;15.10;39.80;95653.97;2090029;28;1024;-56
2022/05/07 04:30:56;;;;;;;;;;;;;;;15.07;39.81;95659.59;2097363;28;1910;-55
2022/05/07 04:31:57;;;;;;;;;;;;;;;15.05;40.04;95656.28;2085120;28;1691;-54
2022/05/07 04:32:59;;;;;;;;;;;;;;;15.13;39.75;95664.22;2084287;28;2083;-55
2022/05/07 04:34:00;;;;;;;;;;;;;;;15.08;40.11;95660.41;2089866;28;1018;-55
2022/05/07 04:35:02;;;;;;;;;;;;;;;15.12;39.74;95667.06;2085888;28;1734;-55
2022/05/07 04:36:04;;;;;;;;;;;;;;;15.04;39.93;95653.78;2081390;28;1719;-56
2022/05/07 04:37:06;;;;;;;;;;;;;;;15.05;40.11;95658.09;2079147;28;1592;-55
2022/05/07 04:38:07;;;;;;;;;;;;;;;15.02;40.02;95659.22;2074407;28;1005;-56
2022/05/07 04:39:09;;;;;;;;;;;;;;;15.12;40.20;95664.41;2066758;28;1077;-54
2022/05/07 04:40:11;;;;;;;;;;;;;;;14.99;40.31;95651.63;2074210;28;1957;-57
2022/05/07 04:41:13;;;;;;;;;;;;;;;14.91;40.44;95660.38;2074385;28;1127;-55
2022/05/07 04:42:15;;;;;;;;;;;;;;;14.95;40.40;95659.06;2074153;28;1013;-55
2022/05/07 04:43:20;;;;;;;;;;;;;;;14.93;40.67;95658.38;2075330;28;1690;-54
2022/05/07 04:44:21;;;;;;;;;;;;;;;14.88;40.55;95658.06;2078129;28;1169;-56
2022/05/07 04:45:23;;;;;;;;;;;;;;;14.95;40.66;95656.41;2078805;28;1982;-54
2022/05/07 04:46:24;;;;;;;;;;;;;;;14.99;40.31;95656.09;2082876;28;1111;-56
2022/05/07 04:47:26;;;;;;;;;;;;;;;14.94;40.58;95657.41;2086632;28;1467;-54
2022/05/07 04:48:28;;;;;;;;;;;;;;;14.92;40.35;95648.78;2090913;28;1305;-55
2022/05/07 04:49:29;;;;;;;;;;;;;;;14.89;40.64;95651.75;2091205;28;1120;-55
2022/05/07 04:50:31;;;;;;;;;;;;;;;14.94;40.60;95652.13;2089718;28;1906;-56
2022/05/07 04:51:32;;;;;;;;;;;;;;;15.07;40.62;95658.75;2083479;28;1666;-56
2022/05/07 04:52:40;;;;;;;;;;;;;;;14.99;40.63;95653.44;2083232;28;1495;-56
2022/05/07 04:53:42;;;;;;;;;;;;;;;15.00;40.76;95655.94;2083055;28;1650;-56
2022/05/07 04:54:43;;;;;;;;;;;;;;;14.93;40.99;95654.91;2085647;28;1167;-55
2022/05/07 04:55:50;;;;;;;;;;;;;;;14.95;40.71;95656.41;2086157;28;1666;-60
2022/05/07 04:56:52;;;;;;;;;;;;;;;15.03;40.98;95657.44;2077966;28;1583;-57
2022/05/07 04:57:54;;;;;;;;;;;;;;;15.04;40.68;95654.63;2082566;28;1070;-55
2022/05/07 04:58:55;;;;;;;;;;;;;;;14.89;41.10;95657.06;2081109;28;1637;-55
2022/05/07 04:59:57;;;;;;;;;;;;;;;14.91;41.06;95662.19;2073962;28;1646;-58
2022/05/07 05:00:59;;;;;;;;;;;;;;;14.91;41.14;95663.03;2086382;28;1538;-54
2022/05/07 05:02:01;;;;;;;;;;;;;;;14.85;41.08;95657.53;2081765;28;1831;-58
2022/05/07 05:03:03;;;;;;;;;;;;;;;15.00;40.81;95655.13;2081815;28;1593;-57
2022/05/07 05:04:04;;;;;;;;;;;;;;;14.99;40.72;95662.19;2080422;28;1406;-57
2022/05/07 05:05:06;;;;;;;;;;;;;;;14.98;41.21;95657.09;2073220;28;1463;-58
2022/05/07 05:06:08;;;;;;;;;;;;;;;15.10;40.81;95653.97;2082672;28;1538;-58
2022/05/07 05:07:09;;;;;;;;;;;;;;;15.14;40.68;95663.25;2086513;28;1508;-55
2022/05/07 05:08:11;;;;;;;;;;;;;;;15.17;40.92;95654.16;2090927;28;2332;-58
2022/05/07 05:09:13;;;;;;;;;;;;;;;15.37;40.90;95654.69;2089822;28;1512;-57
2022/05/07 05:10:14;;;;;;;;;;;;;;;15.29;41.03;95646.75;2080726;28;1580;-53
2022/05/07 05:11:16;;;;;;;;;;;;;;;15.10;41.44;95647.84;2081329;28;1981;-56
2022/05/07 05:12:18;;;;;;;;;;;;;;;15.17;41.23;95660.28;2089135;28;1650;-55
2022/05/07 05:13:20;;;;;;;;;;;;;;;15.13;41.69;95656.28;2089614;28;1028;-55
2022/05/07 05:15:41;;;;;;;;;;;;;;;15.22;41.59;95648.38;2081844;28;1627;-56
2022/05/07 05:16:43;;;;;;;;;;;;;;;15.51;40.82;95651.41;2082018;28;1687;-57
2022/05/07 05:17:46;;;;;;;;;;;;;;;15.79;40.35;95654.59;2073953;28;1111;-59
2022/05/07 05:18:48;;;;;;;;;;;;;;;16.25;40.40;95654.06;2082034;28;1441;-59
2022/05/07 05:19:50;;;;;;;;;;;;;;;16.42;39.35;95660.97;2082884;28;1073;-59
2022/05/07 05:20:51;;;;;;;;;;;;;;;16.08;39.35;95658.56;2082214;28;981;-61
2022/05/07 05:21:53;;;;;;;;;;;;;;;16.26;40.64;95656.53;2081341;28;1545;-56
2022/05/07 05:22:54;;;;;;;;;;;;;;;16.37;39.32;95650.03;2089571;28;1100;-58
2022/05/07 05:23:56;;;;;;;;;;;;;;;16.46;39.82;95654.31;2097808;28;1492;-60
2022/05/07 05:24:57;;;;;;;;;;;;;;;16.49;39.69;95653.97;2095464;28;1655;-58
2022/05/07 05:25:59;;;;;;;;;;;;;;;16.21;39.83;95655.38;2090973;28;1116;-55
2022/05/07 05:27:00;;;;;;;;;;;;;;;16.23;40.69;95651.56;2090782;28;1120;-56
2022/05/07 05:28:02;;;;;;;;;;;;;;;16.24;40.01;95647.06;2090719;28;1036;-58
2022/05/07 05:29:03;;;;;;;;;;;;;;;15.99;40.57;95654.22;2081807;28;1112;-57
2022/05/07 05:30:05;;;;;;;;;;;;;;;15.83;40.93;95655.91;2090701;28;1109;-58
2022/05/07 05:31:07;;;;;;;;;;;;;;;15.86;41.04;95650.28;2091183;28;1910;-58
2022/05/07 05:32:08;;;;;;;;;;;;;;;15.81;41.29;95657.88;2091165;28;1505;-58
2022/05/07 05:33:10;;;;;;;;;;;;;;;15.88;41.29;95655.44;2083459;28;1720;-61
2022/05/07 05:34:14;;;;;;;;;;;;;;;16.04;41.25;95657.22;2082452;28;1180;-60
2022/05/07 05:35:16;;;;;;;;;;;;;;;16.50;40.55;95652.16;2082347;28;1056;-62
2022/05/07 05:36:17;;;;;;;;;;;;;;;16.87;39.85;95648.91;2082609;28;1185;-57